createdAt,value
2022-11-19T00:02:46.122Z,103101.44
2022-11-19T00:05:32.962Z,103099.69
2022-11-19T00:08:19.901Z,103109.38
2022-11-19T00:11:09.763Z,103109.38
2022-11-19T00:13:58.751Z,103105.16
2022-11-19T00:16:45.647Z,103109.53
2022-11-19T00:19:33.240Z,103109.47
2022-11-19T00:22:20.166Z,103113.94
2022-11-19T00:25:07.371Z,103109.56
2022-11-19T00:27:54.278Z,103108.66
2022-11-19T00:30:48.098Z,103113.06
2022-11-19T00:33:35.560Z,103108.66
2022-11-19T00:36:23.753Z,103048.41
2022-11-19T00:39:10.724Z,103088.28
2022-11-19T00:41:57.868Z,103114.75
2022-11-19T00:44:44.868Z,103118.34
2022-11-19T00:47:31.931Z,103113.13
2022-11-19T00:50:18.792Z,103114.88
2022-11-19T00:53:05.758Z,103104.25
2022-11-19T00:55:52.699Z,103109.56
2022-11-19T00:58:39.590Z,103109.66
2022-11-19T01:01:27.812Z,103010.44
2022-11-19T01:04:14.860Z,103013.06
2022-11-19T01:07:01.754Z,103090.25
2022-11-19T01:09:48.691Z,103106.34
2022-11-19T01:12:19.591Z,103103.66
2022-11-19T01:15:06.475Z,103108.09
2022-11-19T01:17:53.366Z,103104.47
2022-11-19T01:20:40.357Z,103105.34
2022-11-19T01:23:27.376Z,103060.66
2022-11-19T01:26:14.501Z,103114.78
2022-11-19T01:29:01.538Z,103109.44
2022-11-19T01:31:49.843Z,103112.09
2022-11-19T01:34:36.843Z,103106.84
2022-11-19T01:37:23.807Z,103106.00
2022-11-19T01:40:10.700Z,103113.13
2022-11-19T01:43:09.535Z,103119.16
2022-11-19T01:46:03.987Z,103121.00
2022-11-19T01:48:54.090Z,103111.41
2022-11-19T01:51:55.745Z,103129.72
2022-11-19T01:54:51.253Z,103122.78
2022-11-19T01:57:38.530Z,103122.81
2022-11-19T02:00:27.200Z,103103.41
2022-11-19T02:03:14.905Z,103122.00
2022-11-19T02:06:02.899Z,103118.53
2022-11-19T02:09:03.249Z,103125.53
2022-11-19T02:12:14.806Z,103129.03
2022-11-19T02:15:25.501Z,103132.50
2022-11-19T02:18:48.263Z,103130.84
2022-11-19T02:21:50.441Z,103128.28
2022-11-19T02:25:06.218Z,103127.44
2022-11-19T02:28:16.030Z,103120.34
2022-11-19T02:31:09.941Z,103137.94
2022-11-19T02:34:19.975Z,103126.66
2022-11-19T02:37:30.300Z,103135.34
2022-11-19T02:40:23.162Z,103125.81
2022-11-19T02:43:40.470Z,103137.16
2022-11-19T02:46:34.936Z,103136.31
2022-11-19T02:49:22.508Z,103139.81
2022-11-19T02:52:10.395Z,103135.50
2022-11-19T02:54:57.470Z,103132.94
2022-11-19T02:57:44.479Z,103121.38
2022-11-19T03:00:31.275Z,103104.56
2022-11-19T03:03:23.559Z,103133.91
2022-11-19T03:06:15.961Z,103118.00
2022-11-19T03:09:03.890Z,103135.75
2022-11-19T03:11:52.752Z,103137.56
2022-11-19T03:14:44.567Z,103132.19
2022-11-19T03:17:47.879Z,103130.72
2022-11-19T03:20:44.051Z,103136.03
2022-11-19T03:23:33.503Z,103136.88
2022-11-19T03:26:44.782Z,103132.59
2022-11-19T03:29:34.118Z,103127.38
2022-11-19T03:32:46.180Z,103122.94
2022-11-19T03:35:40.692Z,103129.97
2022-11-19T03:38:32.356Z,103136.13
2022-11-19T03:41:21.563Z,103127.41
2022-11-19T03:44:16.975Z,103130.94
2022-11-19T03:47:07.404Z,103082.25
2022-11-19T03:49:59.200Z,103128.41
2022-11-19T03:52:46.254Z,103131.88
2022-11-19T03:55:33.454Z,103131.91
2022-11-19T03:58:25.110Z,103126.69
2022-11-19T04:01:12.547Z,103119.78
2022-11-19T04:03:59.450Z,103123.25
2022-11-19T04:06:46.419Z,103122.41
2022-11-19T04:09:33.345Z,103116.31
2022-11-19T04:12:20.797Z,103123.31
2022-11-19T04:15:08.338Z,103107.44
2022-11-19T04:17:55.424Z,103113.72
2022-11-19T04:20:42.302Z,103112.88
2022-11-19T04:23:29.575Z,103105.09
2022-11-19T04:26:16.369Z,103115.53
2022-11-19T04:29:03.458Z,103116.41
2022-11-19T04:31:50.418Z,103119.91
2022-11-19T04:34:37.720Z,103105.91
2022-11-19T04:37:24.543Z,103111.19
2022-11-19T04:40:11.543Z,103118.25
2022-11-19T04:42:58.375Z,103115.63
2022-11-19T04:45:45.483Z,103087.22
2022-11-19T04:48:32.382Z,103105.91
2022-11-19T04:51:19.537Z,103115.72
2022-11-19T04:54:06.355Z,103127.03
2022-11-19T04:56:53.386Z,103121.00
2022-11-19T04:59:40.178Z,103122.72
2022-11-19T05:02:27.097Z,103124.44
2022-11-19T05:05:13.994Z,103126.22
2022-11-19T05:08:01.243Z,103115.59
2022-11-19T05:10:48.111Z,103111.22
2022-11-19T05:13:35.220Z,103125.28
2022-11-19T05:16:22.107Z,103132.34
2022-11-19T05:19:09.055Z,103134.16
2022-11-19T05:21:56.107Z,103119.16
2022-11-19T05:24:43.038Z,103124.59
2022-11-19T05:27:29.877Z,103129.88
2022-11-19T05:30:16.891Z,103119.34
2022-11-19T05:33:03.951Z,103124.59
2022-11-19T05:35:51.291Z,103128.97
2022-11-19T05:38:38.132Z,103126.34
2022-11-19T05:41:25.244Z,103091.78
2022-11-19T05:44:12.081Z,103114.94
2022-11-19T05:46:58.977Z,103116.78
2022-11-19T05:49:45.896Z,103115.94
2022-11-19T05:52:32.863Z,103110.69
2022-11-19T05:55:19.800Z,103107.22
2022-11-19T05:58:07.099Z,103123.78
2022-11-19T06:00:54.047Z,103111.50
2022-11-19T06:03:41.154Z,103120.25
2022-11-19T06:06:28.102Z,103115.94
2022-11-19T06:09:15.071Z,103099.97
2022-11-19T06:12:07.729Z,103121.16
2022-11-19T06:14:54.904Z,103100.03
2022-11-19T06:17:42.057Z,103122.88
2022-11-19T06:20:30.134Z,103114.22
2022-11-19T06:23:17.075Z,103115.94
2022-11-19T06:26:04.050Z,103115.00
2022-11-19T06:28:50.883Z,103119.47
2022-11-19T06:31:38.183Z,103112.38
2022-11-19T06:34:25.255Z,103029.84
2022-11-19T06:37:12.242Z,103133.50
2022-11-19T06:39:59.031Z,103130.03
2022-11-19T06:42:58.420Z,103122.19
2022-11-19T06:45:45.296Z,103111.72
2022-11-19T06:48:32.462Z,103120.44
2022-11-19T06:51:19.318Z,103118.72
2022-11-19T06:54:06.372Z,103118.66
2022-11-19T06:56:53.132Z,103117.84
2022-11-19T06:59:40.175Z,103119.63
2022-11-19T07:02:27.368Z,103120.47
2022-11-19T07:05:14.392Z,103121.38
2022-11-19T07:08:03.198Z,103114.25
2022-11-19T07:10:50.779Z,103126.56
2022-11-19T07:13:37.771Z,103120.47
2022-11-19T07:16:24.774Z,103122.31
2022-11-19T07:19:11.664Z,103113.47
2022-11-19T07:21:58.894Z,103110.13
2022-11-19T07:24:46.022Z,103120.63
2022-11-19T07:27:33.219Z,103111.03
2022-11-19T07:30:20.126Z,103118.09
2022-11-19T07:33:06.975Z,103112.91
2022-11-19T07:35:53.876Z,103116.47
2022-11-19T07:38:40.851Z,103124.31
2022-11-19T07:41:27.745Z,103124.38
2022-11-19T07:44:15.054Z,103093.53
2022-11-19T07:47:02.276Z,103113.03
2022-11-19T07:49:49.197Z,103117.44
2022-11-19T07:52:36.395Z,103127.06
2022-11-19T07:55:03.627Z,103116.59
2022-11-19T07:57:50.478Z,103114.91
2022-11-19T08:00:37.695Z,103107.97
2022-11-19T08:03:24.556Z,103107.09
2022-11-19T08:06:11.895Z,103107.16
2022-11-19T08:08:58.880Z,103084.91
2022-11-19T08:11:45.882Z,103101.00
2022-11-19T08:14:33.676Z,103088.66
2022-11-19T08:17:19.461Z,103093.19
2022-11-19T08:20:06.518Z,103116.00
2022-11-19T08:22:34.027Z,103100.31
2022-11-19T08:25:20.902Z,103092.41
2022-11-19T08:28:07.850Z,103081.69
2022-11-19T08:30:54.734Z,103094.22
2022-11-19T08:33:41.925Z,103037.50
2022-11-19T08:36:29.051Z,103095.13
2022-11-19T08:39:16.971Z,103070.34
2022-11-19T08:42:02.626Z,103097.72
2022-11-19T08:44:49.603Z,103090.75
2022-11-19T08:47:36.635Z,103097.81
2022-11-19T08:50:23.683Z,103088.16
2022-11-19T08:53:15.143Z,103078.59
2022-11-19T08:56:02.063Z,103082.16
2022-11-19T08:58:48.915Z,103076.06
2022-11-19T09:01:37.635Z,103081.31
2022-11-19T09:04:24.763Z,103071.63
2022-11-19T09:07:11.913Z,103047.66
2022-11-19T09:09:58.849Z,103008.94
2022-11-19T09:12:45.732Z,103076.16
2022-11-19T09:15:32.615Z,103068.34
2022-11-19T09:18:19.481Z,103074.47
2022-11-19T09:21:06.357Z,102954.22
2022-11-19T09:23:53.484Z,102973.78
2022-11-19T09:26:40.481Z,103045.41
2022-11-19T09:29:27.467Z,102941.97
2022-11-19T09:32:14.490Z,103072.16
2022-11-19T09:35:01.350Z,102996.19
2022-11-19T09:37:48.210Z,103053.88
2022-11-19T09:40:41.658Z,103059.25
2022-11-19T09:43:33.350Z,103037.31
2022-11-19T09:46:40.674Z,103054.13
2022-11-19T09:49:30.934Z,103057.72
2022-11-19T09:52:27.015Z,103048.06
2022-11-19T09:55:17.533Z,103049.94
2022-11-19T09:58:15.184Z,103045.53
2022-11-19T10:01:03.990Z,103045.59
2022-11-19T10:03:51.979Z,103048.22
2022-11-19T10:06:50.599Z,103033.41
2022-11-19T10:09:45.603Z,103034.28
2022-11-19T10:12:48.857Z,103036.13
2022-11-19T10:15:51.165Z,103025.69
2022-11-19T10:18:55.826Z,103028.38
2022-11-19T10:21:47.498Z,103023.13
2022-11-19T10:24:44.310Z,103031.03
2022-11-19T10:27:43.191Z,103031.00
2022-11-19T10:30:39.138Z,103032.88
2022-11-19T10:33:43.803Z,103039.03
2022-11-19T10:36:37.558Z,103044.34
2022-11-19T10:39:44.806Z,103032.16
2022-11-19T10:43:07.600Z,103038.34
2022-11-19T10:45:54.299Z,103023.38
2022-11-19T10:48:43.931Z,103026.13
2022-11-19T10:51:50.822Z,103002.28
2022-11-19T10:54:48.712Z,103028.81
2022-11-19T10:57:39.054Z,103017.38
2022-11-19T11:00:26.325Z,103021.91
2022-11-19T11:03:19.389Z,103029.81
2022-11-19T11:06:20.130Z,103014.97
2022-11-19T11:09:07.658Z,103014.13
2022-11-19T11:11:53.099Z,103011.50
2022-11-19T11:14:41.057Z,103014.16
2022-11-19T11:17:57.651Z,103008.91
2022-11-19T11:20:47.393Z,102999.22
2022-11-19T11:23:40.075Z,102997.53
2022-11-19T11:26:32.658Z,103005.47
2022-11-19T11:29:22.920Z,102939.03
2022-11-19T11:32:10.019Z,103002.03
2022-11-19T11:35:06.921Z,102994.13
2022-11-19T11:37:55.363Z,102972.97
2022-11-19T11:40:43.676Z,102939.53
2022-11-19T11:43:37.801Z,102992.78
2022-11-19T11:46:29.227Z,102898.16
2022-11-19T11:49:15.991Z,102940.63
2022-11-19T11:52:02.864Z,103000.81
2022-11-19T11:54:49.731Z,102985.88
2022-11-19T11:57:41.610Z,103007.94
2022-11-19T12:01:01.360Z,103004.50
2022-11-19T12:03:54.866Z,102938.13
2022-11-19T12:06:51.702Z,102929.34
2022-11-19T12:09:50.276Z,103000.13
2022-11-19T12:12:55.753Z,102993.19
2022-11-19T12:16:12.699Z,102984.44
2022-11-19T12:19:14.331Z,102984.44
2022-11-19T12:22:27.391Z,102987.06
2022-11-19T12:25:38.239Z,102986.19
2022-11-19T12:28:51.749Z,102980.94
2022-11-19T12:31:55.105Z,102984.41
2022-11-19T12:34:44.576Z,102982.59
2022-11-19T12:37:52.703Z,102975.50
2022-11-19T12:40:41.381Z,102973.72
2022-11-19T12:43:38.932Z,102973.75
2022-11-19T12:47:21.177Z,102879.09
2022-11-19T12:50:13.871Z,102980.81
2022-11-19T12:53:35.507Z,102951.66
2022-11-19T12:56:40.474Z,102979.97
2022-11-19T12:59:44.805Z,102978.19
2022-11-19T13:02:54.711Z,102974.72
2022-11-19T13:05:59.932Z,102972.13
2022-11-19T13:09:01.710Z,102970.31
2022-11-19T13:11:59.343Z,102947.38
2022-11-19T13:15:11.340Z,102973.81
2022-11-19T13:18:02.488Z,102965.94
2022-11-19T13:21:07.315Z,102969.47
2022-11-19T13:24:01.825Z,102956.28
2022-11-19T13:26:55.482Z,102959.78
2022-11-19T13:29:42.195Z,102962.41
2022-11-19T13:32:37.875Z,102965.03
2022-11-19T13:35:30.978Z,102960.69
2022-11-19T13:38:32.943Z,102952.78
2022-11-19T13:41:34.569Z,102961.50
2022-11-19T13:44:20.792Z,102961.50
2022-11-19T13:47:10.358Z,102958.03
2022-11-19T13:50:06.740Z,102963.28
2022-11-19T13:53:03.339Z,102958.06
2022-11-19T13:55:55.251Z,102967.69
2022-11-19T13:58:46.600Z,102959.84
2022-11-19T14:01:57.233Z,102959.81
2022-11-19T14:05:08.254Z,102964.19
2022-11-19T14:08:07.299Z,102968.56
2022-11-19T14:10:57.804Z,102965.97
2022-11-19T14:14:14.719Z,102972.13
2022-11-19T14:17:17.951Z,102973.03
2022-11-19T14:20:08.921Z,102978.28
2022-11-19T14:23:01.370Z,102969.41
2022-11-19T14:26:07.596Z,102972.94
2022-11-19T14:29:05.955Z,102957.09
2022-11-19T14:31:52.971Z,102965.06
2022-11-19T14:34:48.551Z,102969.50
2022-11-19T14:37:43.044Z,102967.81
2022-11-19T14:40:32.494Z,102956.41
2022-11-19T14:43:20.635Z,102966.88
2022-11-19T14:46:25.459Z,102966.84
2022-11-19T14:49:23.010Z,102957.22
2022-11-19T14:52:15.550Z,102921.81
2022-11-19T14:55:05.655Z,102957.28
2022-11-19T14:58:01.478Z,102967.75
2022-11-19T15:00:58.407Z,102956.41
2022-11-19T15:03:47.831Z,102931.72
2022-11-19T15:06:38.542Z,102952.91
2022-11-19T15:09:25.792Z,102941.41
2022-11-19T15:12:15.559Z,102946.81
2022-11-19T15:15:02.310Z,102939.75
2022-11-19T15:17:50.169Z,102946.84
2022-11-19T15:20:53.100Z,102934.44
2022-11-19T15:23:48.543Z,102945.09
2022-11-19T15:26:48.824Z,102943.28
2022-11-19T15:29:38.797Z,102944.97
2022-11-19T15:32:50.054Z,102939.69
2022-11-19T15:36:14.446Z,102944.94
2022-11-19T15:39:14.738Z,102944.03
2022-11-19T15:42:08.859Z,102942.31
2022-11-19T15:45:05.296Z,102932.72
2022-11-19T15:48:02.082Z,102928.38
2022-11-19T15:50:49.074Z,102922.28
2022-11-19T15:53:43.615Z,102924.91
2022-11-19T15:56:32.628Z,102921.38
2022-11-19T15:59:21.076Z,102923.94
2022-11-19T16:02:18.771Z,102926.53
2022-11-19T16:05:05.516Z,102928.25
2022-11-19T16:07:52.677Z,102914.97
2022-11-19T16:10:48.908Z,102927.38
2022-11-19T16:13:42.603Z,102898.25
2022-11-19T16:16:46.979Z,102919.53
2022-11-19T16:19:34.642Z,102923.88
2022-11-19T16:22:24.496Z,102919.47
2022-11-19T16:25:23.764Z,102912.41
2022-11-19T16:28:10.666Z,102909.78
2022-11-19T16:31:24.638Z,102898.44
2022-11-19T16:34:14.974Z,102911.53
2022-11-19T16:37:06.999Z,102909.75
2022-11-19T16:39:54.422Z,102916.75
2022-11-19T16:42:44.491Z,102900.09
2022-11-19T16:45:52.563Z,102902.75
2022-11-19T16:49:10.359Z,102901.06
2022-11-19T16:52:00.139Z,102899.31
2022-11-19T16:55:10.607Z,102895.84
2022-11-19T16:57:57.375Z,102857.97
2022-11-19T17:00:52.766Z,102886.22
2022-11-19T17:03:51.974Z,102886.09
2022-11-19T17:06:43.701Z,102883.53
2022-11-19T17:09:58.562Z,102889.69
2022-11-19T17:12:53.262Z,102898.44
2022-11-19T17:15:59.698Z,102892.31
2022-11-19T17:18:53.064Z,102771.34
2022-11-19T17:21:47.584Z,102865.97
2022-11-19T17:24:37.882Z,102881.88
2022-11-19T17:27:24.692Z,102888.03
2022-11-19T17:30:24.643Z,102878.28
2022-11-19T17:33:14.579Z,102799.81
2022-11-19T17:36:07.065Z,102891.50
2022-11-19T17:38:54.569Z,102863.41
2022-11-19T17:41:43.386Z,102875.72
2022-11-19T17:44:56.295Z,102876.53
2022-11-19T17:47:43.016Z,102878.34
2022-11-19T17:50:29.721Z,102873.06
2022-11-19T17:53:16.438Z,102875.72
2022-11-19T17:56:04.011Z,102878.34
2022-11-19T17:58:50.714Z,102885.34
2022-11-19T18:01:37.984Z,102885.31
2022-11-19T18:04:24.876Z,102884.38
2022-11-19T18:07:11.749Z,102891.31
2022-11-19T18:09:59.640Z,102868.41
2022-11-19T18:12:46.350Z,102900.91
2022-11-19T18:15:38.631Z,102893.81
2022-11-19T18:18:25.382Z,102896.50
2022-11-19T18:21:12.336Z,102891.25
2022-11-19T18:24:03.095Z,102898.28
2022-11-19T18:26:49.813Z,102873.50
2022-11-19T18:29:36.515Z,102908.78
2022-11-19T18:32:23.248Z,102903.56
2022-11-19T18:35:09.946Z,102909.66
2022-11-19T18:37:56.844Z,102908.81
2022-11-19T18:40:43.609Z,102895.63
2022-11-19T18:43:29.273Z,102900.03
2022-11-19T18:46:15.984Z,102900.94
2022-11-19T18:49:02.768Z,102881.44
2022-11-19T18:51:51.241Z,102906.19
2022-11-19T18:54:38.114Z,102838.19
2022-11-19T18:57:24.825Z,102912.31
2022-11-19T19:00:11.524Z,102905.31
2022-11-19T19:02:58.287Z,102907.13
2022-11-19T19:05:45.038Z,102908.03
2022-11-19T19:08:31.804Z,102902.81
2022-11-19T19:11:18.227Z,102895.81
2022-11-19T19:14:05.941Z,102903.69
2022-11-19T19:16:52.779Z,102892.25
2022-11-19T19:19:39.529Z,102908.00
2022-11-19T19:22:27.350Z,102901.88
2022-11-19T19:25:14.090Z,102902.75
2022-11-19T19:28:00.797Z,102891.38
2022-11-19T19:30:47.593Z,102895.75
2022-11-19T19:33:34.294Z,102894.81
2022-11-19T19:36:25.117Z,102892.25
2022-11-19T19:39:12.015Z,102894.00
2022-11-19T19:41:58.750Z,102896.63
2022-11-19T19:44:45.493Z,102904.47
2022-11-19T19:47:32.283Z,102904.47
2022-11-19T19:50:19.015Z,102910.56
2022-11-19T19:53:05.731Z,102823.16
2022-11-19T19:55:52.516Z,102905.28
2022-11-19T19:58:39.198Z,102905.28
2022-11-19T20:01:37.940Z,102855.03
2022-11-19T20:04:27.753Z,102894.81
2022-11-19T20:07:14.622Z,102900.94
2022-11-19T20:10:01.435Z,102897.47
2022-11-19T20:12:48.139Z,102888.69
2022-11-19T20:15:36.416Z,102883.44
2022-11-19T20:18:23.361Z,102879.97
2022-11-19T20:21:10.418Z,102830.41
2022-11-19T20:23:57.566Z,102869.44
2022-11-19T20:26:47.082Z,102881.78
2022-11-19T20:29:34.087Z,102880.84
2022-11-19T20:32:20.787Z,102880.03
2022-11-19T20:35:07.541Z,102888.72
2022-11-19T20:37:54.267Z,102879.88
2022-11-19T20:40:41.043Z,102891.38
2022-11-19T20:43:27.371Z,102881.78
2022-11-19T20:46:14.089Z,102880.91
2022-11-19T20:49:01.310Z,102870.28
2022-11-19T20:51:48.035Z,102872.22
2022-11-19T20:54:35.307Z,102869.53
2022-11-19T20:57:22.012Z,102872.22
2022-11-19T21:00:08.736Z,102873.94
2022-11-19T21:02:55.975Z,102872.25
2022-11-19T21:05:42.705Z,102862.59
2022-11-19T21:08:29.430Z,102860.88
2022-11-19T21:11:24.765Z,102857.41
2022-11-19T21:14:12.300Z,102856.56
2022-11-19T21:16:59.143Z,102853.97
2022-11-19T21:19:45.903Z,102843.47
2022-11-19T21:22:32.644Z,102832.94
2022-11-19T21:25:19.358Z,102839.97
2022-11-19T21:28:06.080Z,102848.69
2022-11-19T21:30:53.419Z,102826.56
2022-11-19T21:33:40.182Z,102799.13
2022-11-19T21:36:27.683Z,102854.72
2022-11-19T21:39:14.406Z,102855.63
2022-11-19T21:42:01.129Z,102784.94
2022-11-19T21:44:47.870Z,102855.66
2022-11-19T21:47:34.595Z,102850.38
2022-11-19T21:50:21.343Z,102846.88
2022-11-19T21:53:08.062Z,102851.28
2022-11-19T21:55:55.018Z,102852.16
2022-11-19T21:58:41.703Z,102859.22
2022-11-19T22:01:31.044Z,102854.84
2022-11-19T22:04:17.834Z,102852.22
2022-11-19T22:07:04.652Z,102847.81
2022-11-19T22:09:51.859Z,102848.69
2022-11-19T22:12:38.557Z,102847.78
2022-11-19T22:15:26.703Z,102832.88
2022-11-19T22:18:13.462Z,102845.22
2022-11-19T22:21:00.173Z,102836.41
2022-11-19T22:23:46.902Z,102833.00
2022-11-19T22:26:34.235Z,102698.63
2022-11-19T22:29:21.253Z,102832.97
2022-11-19T22:32:08.192Z,102827.75
2022-11-19T22:34:55.180Z,102822.41
2022-11-19T22:37:41.894Z,102831.13
2022-11-19T22:40:29.515Z,102828.53
2022-11-19T22:43:21.559Z,102833.75
2022-11-19T22:46:10.867Z,102826.72
2022-11-19T22:48:58.287Z,102821.34
2022-11-19T22:51:46.112Z,102832.06
2022-11-19T22:54:35.108Z,102827.69
2022-11-19T22:57:25.394Z,102821.59
